This is the latest recevied weather packets stored in our database for station/object SA6BET-2. If no packets are shown the sender has not sent any weather packets the latest 10 day(s).
| Time | Temp. | Humidity | Pressure | Rain* | Wind** | Luminosity | Snow |
|---|---|---|---|---|---|---|---|
| 1777477755 | 24.44° C | 100% | 1013.6 hPa | - | - | - | - |
| 1777476855 | 25° C | 100% | 1013.6 hPa | - | - | - | - |
| 1777475954 | 25.56° C | 100% | 1013.5 hPa | - | - | - | - |
| 1777475054 | 26.11° C | 100% | 1013.6 hPa | - | - | - | - |
| 1777474154 | 26.67° C | 96% | 1013.6 hPa | - | - | - | - |
| 1777473254 | 28.33° C | 81% | 1013.5 hPa | - | - | - | - |
| 1777472354 | 27.22° C | 87% | 1013.5 hPa | - | - | - | - |
| 1777471453 | 28.33° C | 85% | 1013.6 hPa | - | - | - | - |
| 1777470553 | 28.33° C | 85% | 1013.7 hPa | - | - | - | - |
| 1777469652 | 26.67° C | 100% | 1013.7 hPa | - | - | - | - |
| 1777468752 | 26.11° C | 100% | 1013.8 hPa | - | - | - | - |
| 1777467852 | 26.11° C | 100% | 1013.8 hPa | - | - | - | - |
| 1777466952 | 25.56° C | 100% | 1013.8 hPa | - | - | - | - |
| 1777466052 | 26.67° C | 100% | 1013.7 hPa | - | - | - | - |
| 1777465152 | 27.78° C | 99% | 1013.7 hPa | - | - | - | - |
| 1777464260 | 25° C | 100% | 1014 hPa | - | - | - | - |
| 1777463359 | 24.44° C | 100% | 1014 hPa | - | - | - | - |
| 1777462459 | 24.44° C | 100% | 1014.2 hPa | - | - | - | - |
| 1777461559 | 24.44° C | 100% | 1014.2 hPa | - | - | - | - |
| 1777460659 | 24.44° C | 100% | 1014.2 hPa | - | - | - | - |
| 1777459759 | 23.89° C | 100% | 1014.2 hPa | - | - | - | - |
| 1777458859 | 24.44° C | 100% | 1014.3 hPa | - | - | - | - |
| 1777457958 | 22.78° C | 100% | 1014.3 hPa | - | - | - | - |
| 1777457058 | 23.89° C | 100% | 1014.1 hPa | - | - | - | - |
| 1777456158 | 22.78° C | 100% | 1014.2 hPa | - | - | - | - |
* Rain since midnight (hover to see other rain measurements)
** Current wind speed in m/s (hover to see current wind gust speed)